Time;durP1;ratioP1;P1;durP2;ratioP2;P2;SDS_P1;SDS_P2;PMS_P1;PMS_P2;Temp;Humidity;BMP_temperature;BMP_pressure;BME280_temperature;BME280_humidity;BME280_pressure;Samples;Min_cycle;Max_cycle;Signal;HPM_P1;HPM_P2
2021/08/05 00:02:24;;;;;;;4.10;2.67;;;19.60;99.90;;;;;;4323345;32;20230;-76
2021/08/05 00:04:50;;;;;;;3.30;2.72;;;19.50;99.90;;;;;;4348165;32;20081;-76
2021/08/05 00:07:17;;;;;;;5.30;3.03;;;19.50;99.90;;;;;;4323250;32;20093;-76
2021/08/05 00:09:45;;;;;;;3.17;2.72;;;19.50;99.90;;;;;;4336192;32;20090;-75
2021/08/05 00:12:13;;;;;;;3.20;2.45;;;19.40;99.90;;;;;;4323961;32;20512;-76
2021/08/05 00:14:39;;;;;;;3.72;2.45;;;19.40;99.90;;;;;;4335578;32;20075;-74
2021/08/05 00:17:06;;;;;;;3.20;2.50;;;19.40;99.90;;;;;;4323597;32;20078;-76
2021/08/05 00:19:32;;;;;;;5.68;2.60;;;19.50;99.90;;;;;;4335408;32;20074;-76
2021/08/05 00:21:58;;;;;;;4.20;3.00;;;19.50;99.90;;;;;;4323383;32;20155;-77
2021/08/05 00:24:24;;;;;;;4.47;2.40;;;19.50;99.90;;;;;;4335615;32;20086;-75
2021/08/05 00:26:50;;;;;;;3.35;2.60;;;19.50;99.90;;;;;;4323309;32;20172;-75
2021/08/05 00:29:16;;;;;;;3.08;2.70;;;19.50;99.90;;;;;;4347766;32;20077;-76
2021/08/05 00:31:43;;;;;;;3.30;2.78;;;19.40;99.90;;;;;;4323198;32;20090;-76
2021/08/05 00:34:09;;;;;;;3.12;2.78;;;19.40;99.90;;;;;;4335077;32;20063;-76
2021/08/05 00:36:36;;;;;;;2.95;2.33;;;19.40;99.90;;;;;;4335681;32;20493;-76
2021/08/05 00:39:02;;;;;;;3.33;2.55;;;19.40;99.90;;;;;;4348280;32;20079;-77
2021/08/05 00:41:28;;;;;;;2.70;2.50;;;19.40;99.90;;;;;;4336196;32;20085;-76
2021/08/05 00:43:54;;;;;;;4.12;2.85;;;19.50;99.90;;;;;;4335368;32;20106;-76
2021/08/05 00:46:21;;;;;;;4.10;2.70;;;19.40;99.90;;;;;;4335151;32;20070;-76
2021/08/05 00:48:47;;;;;;;3.53;2.83;;;19.40;99.90;;;;;;4361020;32;20074;-75
2021/08/05 00:51:13;;;;;;;4.10;2.60;;;19.40;99.90;;;;;;4347368;32;20089;-76
2021/08/05 00:53:42;;;;;;;4.62;2.70;;;19.50;99.90;;;;;;4335478;32;20087;-75
2021/08/05 00:56:08;;;;;;;2.90;2.45;;;19.50;99.90;;;;;;4322800;32;20505;-76
2021/08/05 00:58:34;;;;;;;3.83;2.80;;;19.60;99.90;;;;;;4347570;32;20074;-75
2021/08/05 01:01:04;;;;;;;4.05;2.35;;;19.60;99.90;;;;;;4359662;32;20525;-75
2021/08/05 01:03:37;;;;;;;2.97;2.65;;;19.60;99.90;;;;;;4335559;32;20074;-75
2021/08/05 01:06:36;;;;;;;3.33;2.72;;;19.60;99.90;;;;;;4335370;32;20081;-75
2021/08/05 01:09:30;;;;;;;5.53;2.85;;;19.60;99.90;;;;;;4347552;32;20154;-75
2021/08/05 01:12:09;;;;;;;4.50;2.55;;;19.60;99.90;;;;;;4337828;32;20534;-76
2021/08/05 01:14:40;;;;;;;3.10;2.50;;;19.70;99.90;;;;;;4338838;32;20165;-76
2021/08/05 01:17:08;;;;;;;3.97;2.50;;;19.60;99.90;;;;;;4338529;32;20105;-76
2021/08/05 01:19:51;;;;;;;5.37;2.83;;;19.50;99.90;;;;;;4338107;32;20525;-76
2021/08/05 01:22:56;;;;;;;4.40;2.67;;;19.60;99.90;;;;;;4338291;32;20509;-76
2021/08/05 01:25:29;;;;;;;3.83;2.80;;;19.60;99.90;;;;;;4352930;32;20079;-75
2021/08/05 01:27:56;;;;;;;3.58;2.40;;;19.60;99.90;;;;;;4337557;32;20509;-76
2021/08/05 01:30:24;;;;;;;2.47;2.20;;;19.70;99.90;;;;;;4338057;32;20069;-75
2021/08/05 01:32:50;;;;;;;3.30;2.60;;;19.70;99.90;;;;;;4337739;32;20527;-76
2021/08/05 01:35:16;;;;;;;5.28;2.40;;;19.60;99.90;;;;;;4337377;32;20509;-76
2021/08/05 01:37:42;;;;;;;3.83;3.10;;;19.60;99.90;;;;;;4337963;32;20567;-76
2021/08/05 01:40:09;;;;;;;3.53;2.70;;;19.60;99.90;;;;;;4338019;32;20090;-75
2021/08/05 01:42:37;;;;;;;5.12;2.92;;;19.70;99.90;;;;;;4338100;32;20100;-77
2021/08/05 01:45:05;;;;;;;6.68;2.75;;;19.70;99.90;;;;;;4325673;32;20097;-76
2021/08/05 01:47:31;;;;;;;4.72;2.87;;;19.60;99.90;;;;;;4349865;32;20106;-76
2021/08/05 01:49:57;;;;;;;6.25;2.53;;;19.60;99.90;;;;;;4337535;32;20071;-74
2021/08/05 01:52:23;;;;;;;5.05;2.37;;;19.70;99.90;;;;;;4337519;32;20477;-77
2021/08/05 01:54:49;;;;;;;3.87;2.50;;;19.70;99.90;;;;;;4349716;32;20537;-75
2021/08/05 01:57:16;;;;;;;4.70;2.83;;;19.80;99.90;;;;;;4350130;32;20505;-75
2021/08/05 01:59:42;;;;;;;3.58;2.67;;;19.80;99.90;;;;;;4337525;32;20078;-76
2021/08/05 02:02:08;;;;;;;4.72;2.60;;;19.80;99.90;;;;;;4349684;32;20154;-75
2021/08/05 02:05:32;;;;;;;3.20;2.58;;;19.90;99.90;;;;;;4337570;32;20074;-76
2021/08/05 02:08:12;;;;;;;6.30;2.70;;;19.90;99.90;;;;;;4301760;33;20086;-75
2021/08/05 02:10:41;;;;;;;4.60;2.90;;;20.00;99.90;;;;;;4278261;33;20084;-76
2021/08/05 02:13:18;;;;;;;3.70;2.72;;;20.10;99.90;;;;;;4300977;32;20073;-76
2021/08/05 02:15:50;;;;;;;2.78;2.33;;;20.00;99.90;;;;;;4337872;32;20606;-75
2021/08/05 02:18:17;;;;;;;6.65;2.62;;;20.10;99.90;;;;;;4337900;32;20078;-76
2021/08/05 02:20:44;;;;;;;3.60;2.72;;;20.20;99.90;;;;;;4337121;32;20595;-75
2021/08/05 02:23:14;;;;;;;3.17;2.33;;;20.10;99.90;;;;;;4337173;32;20108;-74
2021/08/05 02:25:40;;;;;;;4.40;2.62;;;20.20;99.90;;;;;;4325378;32;20097;-75
2021/08/05 02:28:07;;;;;;;4.03;2.70;;;20.20;99.90;;;;;;4337048;32;20153;-76
2021/08/05 02:30:34;;;;;;;3.90;2.80;;;20.20;99.90;;;;;;4324939;32;20090;-76
2021/08/05 02:33:01;;;;;;;4.97;2.72;;;20.30;99.90;;;;;;4336820;32;20181;-75
2021/08/05 02:35:27;;;;;;;3.03;2.42;;;20.30;99.90;;;;;;4329880;33;20071;-75
2021/08/05 02:37:54;;;;;;;9.02;3.20;;;20.30;99.90;;;;;;4322283;33;20086;-76
2021/08/05 02:40:20;;;;;;;4.85;2.60;;;20.30;99.90;;;;;;4297842;33;20544;-76
2021/08/05 02:42:47;;;;;;;4.05;2.70;;;20.30;99.90;;;;;;4310369;33;20521;-76
2021/08/05 02:45:14;;;;;;;6.50;2.97;;;20.40;99.90;;;;;;4297987;33;20059;-76
2021/08/05 02:47:40;;;;;;;6.47;2.90;;;20.50;99.90;;;;;;4310219;33;20082;-76
2021/08/05 02:50:07;;;;;;;3.78;2.70;;;20.50;99.90;;;;;;4322806;33;20523;-77
2021/08/05 02:52:34;;;;;;;5.45;2.83;;;20.60;99.90;;;;;;4322433;33;20069;-76
2021/08/05 02:55:05;;;;;;;3.65;2.50;;;20.50;99.90;;;;;;4309877;33;20086;-77
2021/08/05 02:57:31;;;;;;;9.38;2.65;;;20.40;99.90;;;;;;4310578;33;20075;-76
2021/08/05 02:59:58;;;;;;;9.30;3.45;;;20.50;99.90;;;;;;4297864;33;20513;-76
2021/08/05 03:02:24;;;;;;;3.95;3.30;;;20.50;99.90;;;;;;4297969;33;20069;-75
2021/08/05 03:04:50;;;;;;;7.87;3.00;;;20.60;99.90;;;;;;4309641;33;20244;-76
2021/08/05 03:07:17;;;;;;;4.97;3.22;;;20.60;99.90;;;;;;4322022;33;20068;-76
2021/08/05 03:09:43;;;;;;;3.70;2.90;;;20.60;99.90;;;;;;4321779;33;20510;-75
2021/08/05 03:12:09;;;;;;;4.40;2.65;;;20.60;99.90;;;;;;4321684;33;20083;-75
2021/08/05 03:14:35;;;;;;;3.97;2.78;;;20.70;99.90;;;;;;4321898;33;20218;-74
2021/08/05 03:17:02;;;;;;;4.78;3.00;;;20.70;99.90;;;;;;4321875;33;20083;-74
2021/08/05 03:19:28;;;;;;;5.43;3.17;;;20.70;99.90;;;;;;4310043;33;20584;-75
2021/08/05 03:21:54;;;;;;;5.45;2.97;;;20.70;99.90;;;;;;4321743;33;20074;-76
2021/08/05 03:24:21;;;;;;;5.15;2.75;;;20.80;99.90;;;;;;4309466;33;20514;-76
2021/08/05 03:26:47;;;;;;;4.55;2.80;;;20.80;99.90;;;;;;4297199;33;20543;-76
2021/08/05 03:29:13;;;;;;;3.67;2.85;;;20.90;99.90;;;;;;4333396;33;20067;-75
2021/08/05 03:31:39;;;;;;;4.47;2.78;;;20.90;99.90;;;;;;4322373;33;20093;-76
2021/08/05 03:34:05;;;;;;;5.12;2.85;;;21.00;99.90;;;;;;4310558;32;20473;-75
2021/08/05 03:36:31;;;;;;;5.45;2.92;;;21.10;99.90;;;;;;4348550;32;20198;-76
2021/08/05 03:38:58;;;;;;;3.67;2.58;;;21.10;99.90;;;;;;4335918;32;20180;-76
2021/08/05 03:41:24;;;;;;;5.10;2.72;;;21.10;99.90;;;;;;4336138;32;20155;-76
2021/08/05 03:43:50;;;;;;;4.53;3.45;;;21.20;99.90;;;;;;4349706;32;20090;-76
2021/08/05 03:46:16;;;;;;;5.70;3.20;;;21.20;99.90;;;;;;4349761;32;20086;-76
2021/08/05 03:48:42;;;;;;;3.60;2.80;;;21.20;99.90;;;;;;4348347;32;20074;-76
2021/08/05 03:51:08;;;;;;;5.53;3.42;;;21.20;99.90;;;;;;4323661;32;20070;-75
2021/08/05 03:53:35;;;;;;;4.32;3.25;;;21.20;99.90;;;;;;4336040;32;20089;-75
2021/08/05 03:56:01;;;;;;;5.60;3.42;;;21.20;99.90;;;;;;4335569;32;20085;-76
2021/08/05 03:58:28;;;;;;;5.87;3.28;;;21.40;99.90;;;;;;4323205;32;20093;-75
2021/08/05 04:00:54;;;;;;;5.40;3.22;;;21.50;99.90;;;;;;4335672;32;20146;-75
2021/08/05 04:03:20;;;;;;;6.15;3.08;;;21.60;99.90;;;;;;4335506;32;20090;-76
2021/08/05 04:05:46;;;;;;;4.00;2.83;;;21.80;99.90;;;;;;4335907;32;20615;-76
2021/08/05 04:08:13;;;;;;;5.07;3.00;;;21.90;99.90;;;;;;4335923;32;20090;-76
2021/08/05 04:10:39;;;;;;;3.00;2.70;;;22.00;99.90;;;;;;4360132;32;20069;-76
2021/08/05 04:13:05;;;;;;;3.92;2.28;;;22.00;99.90;;;;;;4335531;32;20071;-76
2021/08/05 04:15:31;;;;;;;3.87;2.85;;;21.90;99.90;;;;;;4347855;32;20079;-76
2021/08/05 04:17:57;;;;;;;3.22;2.50;;;21.90;99.90;;;;;;4361575;32;20164;-75
2021/08/05 04:20:23;;;;;;;2.87;2.58;;;22.10;99.90;;;;;;4347846;32;20085;-76
2021/08/05 04:22:50;;;;;;;5.47;2.97;;;22.20;99.90;;;;;;4323686;32;20077;-77
2021/08/05 04:25:16;;;;;;;4.53;2.70;;;22.40;99.90;;;;;;4323699;32;20091;-76
2021/08/05 04:27:42;;;;;;;4.80;2.40;;;22.30;99.90;;;;;;4323423;32;20096;-74
2021/08/05 04:30:12;;;;;;;5.87;3.50;;;22.40;99.90;;;;;;4335706;32;20489;-75
2021/08/05 04:32:39;;;;;;;4.55;2.60;;;22.50;99.90;;;;;;4323895;32;20082;-77
2021/08/05 04:35:07;;;;;;;6.97;2.95;;;22.40;99.90;;;;;;4347245;32;20276;-76
2021/08/05 04:37:33;;;;;;;4.07;2.55;;;22.50;99.90;;;;;;4335517;32;20070;-73
2021/08/05 04:39:59;;;;;;;3.58;2.75;;;22.60;99.90;;;;;;4335220;32;20070;-75
2021/08/05 04:42:25;;;;;;;5.70;3.08;;;22.60;99.90;;;;;;4322792;32;20078;-74
2021/08/05 04:44:51;;;;;;;4.03;3.03;;;22.90;99.90;;;;;;4336098;32;20066;-74
2021/08/05 04:47:17;;;;;;;3.40;2.50;;;24.90;99.90;;;;;;4339144;32;20126;-73
2021/08/05 04:49:44;;;;;;;4.62;2.40;;;25.60;99.90;;;;;;4350962;32;20075;-71
2021/08/05 04:52:10;;;;;;;6.05;2.62;;;25.40;99.90;;;;;;4351870;32;20588;-73
2021/08/05 04:54:36;;;;;;;5.93;2.90;;;27.00;99.90;;;;;;4338225;32;20089;-75
2021/08/05 04:57:02;;;;;;;3.15;2.60;;;26.90;95.70;;;;;;4353532;32;20078;-76
2021/08/05 04:59:29;;;;;;;4.43;3.00;;;26.20;95.50;;;;;;4351654;32;20582;-74
2021/08/05 05:01:55;;;;;;;2.95;2.33;;;26.70;93.00;;;;;;4349797;32;20090;-73
2021/08/05 05:04:21;;;;;;;3.62;2.67;;;27.30;85.30;;;;;;4337021;32;20176;-74
2021/08/05 05:06:47;;;;;;;3.22;2.67;;;26.50;86.20;;;;;;4322807;32;20071;-73
2021/08/05 05:09:13;;;;;;;3.53;2.50;;;26.20;87.00;;;;;;4322526;32;20118;-74
2021/08/05 05:11:40;;;;;;;3.95;2.78;;;26.50;81.40;;;;;;4347595;32;20089;-74
2021/08/05 05:14:06;;;;;;;1.70;1.60;;;26.80;71.80;;;;;;4334916;32;20522;-74
2021/08/05 05:16:32;;;;;;;3.03;2.30;;;27.00;73.80;;;;;;4335186;32;20094;-74
2021/08/05 05:18:58;;;;;;;3.58;2.47;;;27.20;70.60;;;;;;4361597;32;20074;-74
2021/08/05 05:21:24;;;;;;;4.47;2.67;;;27.10;68.40;;;;;;4361042;32;20166;-76
2021/08/05 05:23:51;;;;;;;5.03;2.70;;;26.60;70.40;;;;;;4347263;32;20086;-74
2021/08/05 05:26:17;;;;;;;3.33;2.60;;;25.90;78.20;;;;;;4347875;32;20074;-73
2021/08/05 05:28:43;;;;;;;3.35;2.55;;;25.90;79.10;;;;;;4335711;32;20070;-73
2021/08/05 05:31:09;;;;;;;3.95;3.10;;;26.20;74.80;;;;;;4347997;32;20078;-75
2021/08/05 05:33:36;;;;;;;4.30;2.70;;;26.70;71.70;;;;;;4347242;32;20098;-75
2021/08/05 05:36:03;;;;;;;4.50;2.60;;;27.30;68.60;;;;;;4334982;32;20079;-75
2021/08/05 05:38:29;;;;;;;3.95;2.58;;;28.30;63.30;;;;;;4347245;32;20088;-73
2021/08/05 05:40:55;;;;;;;4.40;2.28;;;27.10;62.20;;;;;;4360587;32;20071;-72
2021/08/05 05:43:21;;;;;;;4.78;2.60;;;27.30;63.20;;;;;;4347263;32;20166;-71
2021/08/05 05:45:48;;;;;;;5.43;2.60;;;27.70;59.00;;;;;;4360862;32;20063;-72
2021/08/05 05:48:14;;;;;;;3.72;2.50;;;26.60;64.70;;;;;;4346845;32;20476;-72
2021/08/05 05:50:40;;;;;;;3.40;2.83;;;26.40;67.00;;;;;;4335519;32;20142;-73
2021/08/05 05:53:06;;;;;;;4.55;2.58;;;27.10;60.20;;;;;;4346761;32;20078;-72
2021/08/05 05:55:33;;;;;;;3.78;2.65;;;27.30;59.50;;;;;;4334776;32;20088;-72
2021/08/05 05:57:59;;;;;;;4.87;2.50;;;27.40;59.90;;;;;;4348617;32;20498;-72
2021/08/05 06:00:26;;;;;;;1.92;1.75;;;28.10;54.40;;;;;;4325795;32;20106;-73
2021/08/05 06:02:53;;;;;;;4.97;2.90;;;27.40;59.40;;;;;;4349401;32;20078;-74
2021/08/05 06:05:19;;;;;;;2.40;2.20;;;27.80;59.70;;;;;;4337986;32;20574;-76
2021/08/05 06:07:54;;;;;;;4.20;2.80;;;27.90;52.40;;;;;;4331069;32;20094;-76
2021/08/05 06:10:22;;;;;;;4.60;2.30;;;27.10;55.50;;;;;;4337763;32;20429;-76
2021/08/05 06:12:48;;;;;;;2.53;2.33;;;27.10;53.40;;;;;;4357387;32;20106;-73
2021/08/05 06:15:15;;;;;;;3.53;2.30;;;26.90;53.40;;;;;;4344602;32;20497;-73
2021/08/05 06:17:41;;;;;;;4.65;2.55;;;27.30;54.20;;;;;;4337692;32;20223;-74
2021/08/05 06:20:10;;;;;;;3.35;2.37;;;26.90;57.90;;;;;;4339594;32;20064;-77
2021/08/05 06:22:37;;;;;;;3.97;2.35;;;27.20;57.30;;;;;;4331366;32;20185;-74
2021/08/05 06:25:05;;;;;;;3.22;2.50;;;28.10;53.90;;;;;;4357086;32;20070;-77
2021/08/05 06:27:31;;;;;;;3.75;2.55;;;28.10;52.40;;;;;;4344236;32;20594;-74
2021/08/05 06:29:58;;;;;;;2.72;2.40;;;28.10;49.70;;;;;;4336748;32;20145;-75
2021/08/05 06:32:25;;;;;;;6.28;3.03;;;26.50;57.80;;;;;;4347038;32;20120;-75
2021/08/05 06:34:51;;;;;;;3.25;2.45;;;26.10;60.10;;;;;;4332322;32;20152;-74
2021/08/05 06:37:17;;;;;;;3.60;2.70;;;25.80;64.00;;;;;;4349742;32;20078;-73
2021/08/05 06:39:43;;;;;;;4.25;2.40;;;25.90;60.60;;;;;;4367750;32;20100;-73
2021/08/05 06:42:10;;;;;;;5.93;2.45;;;25.70;59.50;;;;;;4350562;32;20522;-75
2021/08/05 06:44:37;;;;;;;4.07;3.05;;;25.60;62.20;;;;;;4349103;32;20097;-74
2021/08/05 06:47:04;;;;;;;3.17;2.10;;;25.40;58.70;;;;;;4349230;32;20071;-76
2021/08/05 06:49:31;;;;;;;2.83;2.20;;;25.70;55.80;;;;;;4339931;32;20501;-74
2021/08/05 06:51:58;;;;;;;2.90;2.60;;;26.20;52.60;;;;;;4361841;32;20074;-74
2021/08/05 06:54:24;;;;;;;2.45;1.92;;;26.10;50.10;;;;;;4337985;32;20067;-73
2021/08/05 06:56:50;;;;;;;2.35;2.12;;;25.70;49.20;;;;;;4356770;32;20152;-76
2021/08/05 06:59:16;;;;;;;6.60;2.50;;;25.80;48.20;;;;;;4337432;32;20098;-78
2021/08/05 07:01:43;;;;;;;5.25;2.00;;;25.60;48.00;;;;;;4338673;32;20102;-77
2021/08/05 07:04:09;;;;;;;3.95;2.33;;;26.10;47.50;;;;;;4363570;32;20590;-80
2021/08/05 07:06:36;;;;;;;2.40;1.92;;;26.30;47.60;;;;;;4366180;32;20079;-77
2021/08/05 07:09:02;;;;;;;1.83;1.55;;;26.00;46.00;;;;;;4350756;32;20456;-74
2021/08/05 07:11:28;;;;;;;2.87;2.12;;;25.80;46.70;;;;;;4336130;32;20089;-76
2021/08/05 07:13:54;;;;;;;2.10;1.90;;;25.80;45.90;;;;;;4358025;32;20090;-78
2021/08/05 07:16:21;;;;;;;6.65;2.30;;;25.90;46.90;;;;;;4350626;32;20106;-74
2021/08/05 07:18:47;;;;;;;1.30;1.15;;;26.90;45.50;;;;;;4336625;32;20065;-77
2021/08/05 07:21:13;;;;;;;3.03;2.08;;;26.70;43.80;;;;;;4349104;32;20082;-80
2021/08/05 07:23:39;;;;;;;2.95;2.20;;;25.90;44.00;;;;;;4361728;32;20554;-79
2021/08/05 07:26:05;;;;;;;2.87;2.30;;;26.00;45.00;;;;;;4337649;32;20527;-72
2021/08/05 07:28:32;;;;;;;3.92;2.22;;;26.20;45.00;;;;;;4352185;32;20165;-76
2021/08/05 07:30:58;;;;;;;3.87;2.17;;;26.10;45.50;;;;;;4324334;32;20080;-74
2021/08/05 07:33:24;;;;;;;3.58;2.25;;;26.10;46.50;;;;;;4345112;32;20075;-76
2021/08/05 07:35:51;;;;;;;2.67;2.22;;;26.30;46.00;;;;;;4338686;32;20070;-77
2021/08/05 07:38:17;;;;;;;3.90;2.50;;;27.00;44.40;;;;;;4368720;32;20143;-77
2021/08/05 07:40:43;;;;;;;4.40;2.30;;;26.30;44.70;;;;;;4353476;32;20081;-79
2021/08/05 07:43:09;;;;;;;4.07;2.00;;;26.10;43.70;;;;;;4355782;32;20067;-77
2021/08/05 07:45:35;;;;;;;3.03;1.92;;;26.60;42.90;;;;;;4338151;32;20510;-77
2021/08/05 07:48:02;;;;;;;2.47;1.87;;;26.20;41.70;;;;;;4348105;32;20570;-76
2021/08/05 07:50:28;;;;;;;2.60;2.08;;;25.90;42.60;;;;;;4333107;32;20461;-78
2021/08/05 07:52:54;;;;;;;3.10;1.90;;;26.30;42.10;;;;;;4340124;32;20167;-79
2021/08/05 07:55:21;;;;;;;2.65;2.28;;;26.00;40.40;;;;;;4352974;32;20073;-77
2021/08/05 07:57:47;;;;;;;2.47;1.77;;;26.10;41.70;;;;;;4366693;32;20097;-76
2021/08/05 08:00:13;;;;;;;3.22;2.03;;;26.90;40.60;;;;;;4335030;32;20118;-77
2021/08/05 08:02:40;;;;;;;1.83;1.62;;;27.00;41.10;;;;;;4350329;32;20070;-74
2021/08/05 08:05:07;;;;;;;3.45;2.28;;;27.20;41.00;;;;;;4316831;32;20077;-74
2021/08/05 08:07:37;;;;;;;3.47;2.10;;;26.80;40.70;;;;;;4355078;32;20094;-72
2021/08/05 08:10:05;;;;;;;3.37;2.10;;;26.90;39.60;;;;;;4347245;32;20149;-73
2021/08/05 08:12:31;;;;;;;5.97;2.45;;;26.60;40.50;;;;;;4339418;32;20090;-75
2021/08/05 08:14:57;;;;;;;4.53;2.42;;;26.50;41.50;;;;;;4324831;32;20085;-78
2021/08/05 08:17:23;;;;;;;6.22;2.10;;;26.50;41.50;;;;;;4357772;32;20528;-74
2021/08/05 08:19:50;;;;;;;2.65;1.90;;;26.60;40.00;;;;;;4337922;32;20449;-74
2021/08/05 08:22:16;;;;;;;2.47;2.03;;;26.30;40.30;;;;;;4348154;32;20179;-77
2021/08/05 08:24:42;;;;;;;3.90;2.30;;;26.60;41.50;;;;;;4326135;32;20492;-76
2021/08/05 08:27:08;;;;;;;4.05;2.33;;;27.00;39.10;;;;;;4340615;32;20068;-76
2021/08/05 08:29:35;;;;;;;5.35;2.20;;;27.00;39.30;;;;;;4332476;32;20098;-73
2021/08/05 08:32:01;;;;;;;3.35;2.22;;;27.30;38.40;;;;;;4341798;32;20513;-79
2021/08/05 08:34:27;;;;;;;2.72;1.90;;;27.00;38.30;;;;;;4351375;32;20172;-79
2021/08/05 08:36:54;;;;;;;2.95;2.10;;;27.30;38.50;;;;;;4333770;32;20073;-77
2021/08/05 08:39:22;;;;;;;2.50;2.30;;;26.30;39.60;;;;;;4323061;32;20518;-79
2021/08/05 08:41:49;;;;;;;2.35;2.05;;;27.10;38.40;;;;;;4329958;32;20098;-74
2021/08/05 08:44:15;;;;;;;2.30;1.87;;;27.30;37.60;;;;;;4332671;32;20142;-77
2021/08/05 08:46:43;;;;;;;4.15;2.12;;;27.30;38.20;;;;;;4345893;32;20161;-76
2021/08/05 08:49:09;;;;;;;3.53;2.28;;;27.10;38.40;;;;;;4354137;32;20089;-75
2021/08/05 08:51:36;;;;;;;3.03;2.28;;;27.20;39.60;;;;;;4336070;32;20113;-75
2021/08/05 08:54:07;;;;;;;5.05;2.10;;;27.30;38.40;;;;;;4335863;32;20094;-77
2021/08/05 08:56:34;;;;;;;3.33;2.30;;;27.10;38.60;;;;;;4347788;32;20070;-79
2021/08/05 08:59:01;;;;;;;2.55;1.73;;;26.90;38.40;;;;;;4348679;32;20077;-80
2021/08/05 09:01:27;;;;;;;3.65;2.15;;;26.30;39.30;;;;;;4315260;32;20078;-81
2021/08/05 09:03:53;;;;;;;3.62;2.05;;;26.80;37.60;;;;;;4347105;32;20129;-76
2021/08/05 09:06:20;;;;;;;3.80;2.17;;;26.60;36.40;;;;;;4322669;32;20070;-76
2021/08/05 09:08:46;;;;;;;2.33;1.83;;;26.60;38.40;;;;;;4336810;32;20062;-76
2021/08/05 09:11:12;;;;;;;2.92;2.00;;;27.20;37.00;;;;;;4347287;32;20100;-75
2021/08/05 09:13:38;;;;;;;1.98;1.65;;;27.30;35.70;;;;;;4347873;32;20167;-76
2021/08/05 09:16:29;;;;;;;2.58;2.12;;;27.20;33.90;;;;;;4338894;32;20062;-79
2021/08/05 09:19:14;;;;;;;2.45;1.90;;;27.40;33.90;;;;;;4317015;32;20063;-74
2021/08/05 09:22:01;;;;;;;2.65;1.50;;;27.70;32.20;;;;;;4348670;32;20516;-72
2021/08/05 09:24:29;;;;;;;3.17;1.70;;;27.70;33.70;;;;;;4349363;32;20122;-74
2021/08/05 09:27:02;;;;;;;3.80;2.15;;;28.00;32.00;;;;;;4345362;32;20149;-73
2021/08/05 09:29:28;;;;;;;4.75;1.75;;;27.40;32.90;;;;;;4329696;32;20078;-70
2021/08/05 09:31:54;;;;;;;2.12;1.92;;;27.60;33.30;;;;;;4368770;32;20157;-68
2021/08/05 09:34:23;;;;;;;2.50;1.70;;;27.30;31.20;;;;;;4343797;32;20098;-75
2021/08/05 09:36:58;;;;;;;3.92;2.35;;;27.00;32.30;;;;;;4342609;32;20482;-77
2021/08/05 09:39:29;;;;;;;2.55;1.95;;;27.00;31.20;;;;;;4322815;32;20168;-74
2021/08/05 09:41:58;;;;;;;2.80;1.95;;;27.00;31.50;;;;;;4353186;32;20110;-77
2021/08/05 09:44:38;;;;;;;2.45;1.70;;;27.20;31.80;;;;;;4345516;32;20064;-76
2021/08/05 09:47:17;;;;;;;3.85;2.00;;;27.50;30.80;;;;;;4371082;32;20174;-78
2021/08/05 09:49:47;;;;;;;2.35;1.67;;;27.80;30.70;;;;;;4344878;32;20092;-77
2021/08/05 09:52:27;;;;;;;1.92;1.52;;;27.30;31.90;;;;;;4353128;32;20570;-78
2021/08/05 09:54:53;;;;;;;2.67;2.10;;;27.60;31.50;;;;;;4327467;32;20075;-75
2021/08/05 09:57:29;;;;;;;3.10;1.95;;;27.90;31.60;;;;;;4313167;32;20071;-79
2021/08/05 09:59:59;;;;;;;3.37;1.67;;;27.20;31.50;;;;;;4324674;32;20479;-78
2021/08/05 10:02:39;;;;;;;1.50;1.40;;;28.00;30.30;;;;;;4336008;32;20509;-80
2021/08/05 10:05:23;;;;;;;2.45;1.70;;;28.30;28.70;;;;;;4322217;33;20517;-76
2021/08/05 10:07:58;;;;;;;3.17;1.67;;;28.60;28.40;;;;;;4340005;32;20079;-77
2021/08/05 10:10:51;;;;;;;1.92;1.70;;;28.10;27.30;;;;;;4341392;32;20102;-76
2021/08/05 10:13:34;;;;;;;2.50;1.60;;;28.10;28.20;;;;;;4336719;32;20074;-78
2021/08/05 10:16:05;;;;;;;2.92;1.80;;;27.90;27.40;;;;;;4315391;32;20162;-79
2021/08/05 10:18:34;;;;;;;1.77;1.67;;;28.00;27.00;;;;;;4342489;33;20138;-79
2021/08/05 10:21:03;;;;;;;2.50;2.30;;;27.40;26.90;;;;;;4346023;32;20102;-73
2021/08/05 10:23:29;;;;;;;3.03;2.40;;;27.20;26.60;;;;;;4321696;33;20090;-76
2021/08/05 10:25:58;;;;;;;2.87;2.22;;;27.60;27.20;;;;;;4334672;33;20094;-77
2021/08/05 10:28:26;;;;;;;4.43;2.17;;;27.70;27.40;;;;;;4322616;33;20070;-75
2021/08/05 10:30:53;;;;;;;2.58;2.08;;;27.60;26.90;;;;;;4335138;33;20095;-76
2021/08/05 10:33:23;;;;;;;5.00;2.08;;;27.50;25.50;;;;;;4347012;33;20094;-75
2021/08/05 10:35:50;;;;;;;3.20;1.70;;;27.50;24.10;;;;;;4359438;32;20172;-75
2021/08/05 10:38:22;;;;;;;3.58;1.90;;;27.30;23.80;;;;;;4312663;32;20085;-75
2021/08/05 10:40:50;;;;;;;9.07;3.15;;;28.30;23.30;;;;;;4325091;32;20518;-74
2021/08/05 10:43:16;;;;;;;3.05;1.80;;;28.00;23.30;;;;;;4325096;32;20078;-74
2021/08/05 10:45:43;;;;;;;2.22;1.80;;;28.40;23.00;;;;;;4312485;32;20171;-75
2021/08/05 10:48:10;;;;;;;3.20;2.10;;;28.10;22.00;;;;;;4312724;32;20086;-74
2021/08/05 10:50:42;;;;;;;2.62;1.50;;;28.20;22.80;;;;;;4324653;32;20086;-74
2021/08/05 10:53:13;;;;;;;4.70;1.90;;;27.70;23.60;;;;;;4324631;32;20069;-75
2021/08/05 10:55:41;;;;;;;1.87;1.65;;;27.80;23.60;;;;;;4324509;32;20113;-75
2021/08/05 10:58:21;;;;;;;2.95;1.58;;;28.10;22.80;;;;;;4328251;32;20098;-72
2021/08/05 11:00:51;;;;;;;2.15;1.77;;;28.20;23.30;;;;;;4308453;32;20144;-75
2021/08/05 11:03:33;;;;;;;3.90;1.87;;;28.20;24.20;;;;;;4344199;32;20083;-73
2021/08/05 11:06:22;;;;;;;5.00;2.30;;;28.00;25.00;;;;;;4343919;32;20104;-76
2021/08/05 11:08:48;;;;;;;6.45;3.60;;;27.60;23.90;;;;;;4340020;32;20070;-77
2021/08/05 11:11:21;;;;;;;4.32;3.35;;;27.60;23.40;;;;;;4319758;32;20137;-77
2021/08/05 11:14:00;;;;;;;5.55;2.37;;;28.00;23.60;;;;;;4351092;32;20600;-77
2021/08/05 11:16:51;;;;;;;4.75;2.40;;;28.70;21.10;;;;;;4362685;32;20070;-78
2021/08/05 11:19:26;;;;;;;2.50;1.80;;;28.80;21.50;;;;;;4362085;32;20066;-78
2021/08/05 11:21:53;;;;;;;4.00;1.80;;;28.70;22.60;;;;;;4347466;32;20089;-78
2021/08/05 11:25:01;;;;;;;2.58;1.60;;;28.50;22.60;;;;;;4322759;33;20079;-76
2021/08/05 11:27:28;;;;;;;2.40;1.50;;;27.90;23.10;;;;;;4352182;32;20143;-76
2021/08/05 11:29:54;;;;;;;3.42;1.70;;;28.70;23.30;;;;;;4319840;32;20121;-78
2021/08/05 11:32:24;;;;;;;2.40;1.70;;;28.30;23.80;;;;;;4353427;32;20069;-75
2021/08/05 11:35:07;;;;;;;3.45;1.67;;;28.40;22.90;;;;;;4355779;32;20074;-76
2021/08/05 11:37:34;;;;;;;4.55;2.17;;;27.90;23.80;;;;;;4324113;32;20090;-82
2021/08/05 11:40:04;;;;;;;3.25;2.00;;;27.90;23.10;;;;;;4331977;32;20088;-75
2021/08/05 11:42:30;;;;;;;3.92;2.12;;;27.90;23.40;;;;;;4340791;32;20514;-75
2021/08/05 11:44:56;;;;;;;4.78;1.90;;;28.20;23.40;;;;;;4330529;32;20098;-74
2021/08/05 11:47:24;;;;;;;4.03;2.00;;;28.30;23.80;;;;;;4347842;32;20106;-78
2021/08/05 11:50:04;;;;;;;2.20;1.70;;;28.50;24.30;;;;;;4354518;32;20243;-79
2021/08/05 11:52:39;;;;;;;2.20;1.70;;;28.60;23.80;;;;;;4339730;32;20091;-75
2021/08/05 11:55:17;;;;;;;3.97;1.90;;;28.60;24.10;;;;;;4324386;33;20575;-79
2021/08/05 11:57:50;;;;;;;4.45;1.90;;;28.00;23.80;;;;;;4344117;32;20071;-80
2021/08/05 12:00:31;;;;;;;2.03;1.60;;;28.10;23.70;;;;;;4334700;32;20568;-76
2021/08/05 12:03:04;;;;;;;3.05;1.52;;;28.00;23.60;;;;;;4345376;32;20163;-74
2021/08/05 12:05:46;;;;;;;1.55;1.45;;;27.70;23.40;;;;;;4335215;32;20187;-73
2021/08/05 12:08:12;;;;;;;2.60;1.65;;;28.30;23.60;;;;;;4338688;32;20102;-73
2021/08/05 12:10:42;;;;;;;3.15;1.92;;;28.50;23.90;;;;;;4334986;33;20161;-76
2021/08/05 12:13:21;;;;;;;1.85;1.58;;;28.40;23.80;;;;;;4341761;32;20505;-70
2021/08/05 12:15:53;;;;;;;3.12;1.37;;;29.00;23.90;;;;;;4323711;32;20163;-69
2021/08/05 12:18:22;;;;;;;1.40;1.30;;;29.00;23.70;;;;;;4325564;32;20070;-71
2021/08/05 12:20:50;;;;;;;2.53;1.75;;;28.10;24.10;;;;;;4321564;33;20091;-66
2021/08/05 12:23:32;;;;;;;2.28;1.45;;;28.10;24.40;;;;;;4340811;32;20089;-72
2021/08/05 12:26:36;;;;;;;3.70;1.90;;;28.60;23.80;;;;;;4329831;32;20114;-70
2021/08/05 12:28:53;;;;;;;2.92;1.52;;;27.60;24.20;;;;;;4322966;32;20087;-72
2021/08/05 12:31:23;;;;;;;2.53;1.45;;;27.40;24.70;;;;;;4334547;32;20080;-72
2021/08/05 12:33:50;;;;;;;3.37;1.58;;;27.60;24.70;;;;;;4327195;32;20102;-70
2021/08/05 12:36:21;;;;;;;4.10;1.50;;;28.30;24.00;;;;;;4348265;32;20094;-70
2021/08/05 12:38:54;;;;;;;1.90;1.48;;;28.30;23.90;;;;;;4329165;32;20587;-72
2021/08/05 12:41:29;;;;;;;4.62;1.55;;;28.50;23.70;;;;;;4350871;32;20089;-68
2021/08/05 12:43:58;;;;;;;1.50;1.40;;;28.10;23.80;;;;;;4348421;32;20069;-72
2021/08/05 12:46:25;;;;;;;1.48;1.33;;;28.40;24.40;;;;;;4341302;32;20093;-72
2021/08/05 12:48:55;;;;;;;2.45;1.50;;;27.80;24.10;;;;;;4332915;32;20066;-71
2021/08/05 12:51:21;;;;;;;1.35;1.10;;;28.40;24.10;;;;;;4317815;32;20512;-75
2021/08/05 12:53:47;;;;;;;3.35;1.67;;;28.40;24.00;;;;;;4333889;32;20169;-74
2021/08/05 12:56:13;;;;;;;2.90;1.48;;;28.10;24.80;;;;;;4338067;32;20464;-76
2021/08/05 12:58:40;;;;;;;3.12;1.67;;;27.80;24.20;;;;;;4336523;32;20513;-78